Time;durP1;ratioP1;P1;durP2;ratioP2;P2;SDS_P1;SDS_P2;PMS_P1;PMS_P2;Temp;Humidity;BMP_temperature;BMP_pressure;BME280_temperature;BME280_humidity;BME280_pressure;Samples;Min_cycle;Max_cycle;Signal;HPM_P1;HPM_P2
2021/12/24 00:01:16;;;;;;;77.13;41.63;;;4.90;92.30;;;;;;5021029;28;20225;-68
2021/12/24 00:03:44;;;;;;;86.20;42.77;;;4.90;92.20;;;;;;5021989;28;20224;-68
2021/12/24 00:06:12;;;;;;;82.77;42.93;;;4.90;92.20;;;;;;5011316;28;20227;-68
2021/12/24 00:08:39;;;;;;;78.77;41.87;;;4.90;92.20;;;;;;5030293;28;20228;-68
2021/12/24 00:11:07;;;;;;;82.33;42.87;;;4.90;92.10;;;;;;5010391;28;20230;-68
2021/12/24 00:13:39;;;;;;;73.80;39.30;;;5.00;92.10;;;;;;5024898;28;20209;-68
2021/12/24 00:18:41;;;;;;;78.30;39.03;;;4.90;92.00;;;;;;5026305;28;20210;-68
2021/12/24 00:35:10;;;;;;;73.43;38.80;;;5.00;91.90;;;;;;5019982;28;20562;-68
2021/12/24 00:37:39;;;;;;;75.30;39.87;;;5.00;91.90;;;;;;5005147;28;20735;-68
2021/12/24 00:40:15;;;;;;;72.33;38.70;;;5.00;91.90;;;;;;5011309;28;20567;-68
2021/12/24 00:42:45;;;;;;;72.30;38.37;;;5.00;91.90;;;;;;5020097;28;20581;-68
2021/12/24 00:45:14;;;;;;;72.97;38.77;;;5.10;92.00;;;;;;5020671;28;20222;-68
2021/12/24 00:47:42;;;;;;;76.13;40.37;;;5.10;91.90;;;;;;5022239;28;20256;-68
2021/12/24 00:50:14;;;;;;;81.97;40.83;;;5.10;91.90;;;;;;5014340;28;20251;-68
2021/12/24 00:52:49;;;;;;;83.30;40.43;;;5.10;91.90;;;;;;5006400;28;20593;-68
2021/12/24 00:55:22;;;;;;;78.40;39.90;;;5.10;91.90;;;;;;5022017;28;20308;-68
2021/12/24 00:57:53;;;;;;;69.87;37.57;;;5.10;92.00;;;;;;5020825;28;20509;-67
2021/12/24 01:00:35;;;;;;;76.83;38.90;;;5.10;92.00;;;;;;5024904;28;20219;-67
2021/12/24 01:03:05;;;;;;;68.57;37.27;;;5.10;91.90;;;;;;5014399;28;20636;-67
2021/12/24 01:05:36;;;;;;;64.27;35.80;;;5.20;91.90;;;;;;5029009;28;20566;-68
2021/12/24 01:08:06;;;;;;;68.87;33.80;;;5.20;91.90;;;;;;5028650;28;20227;-68
2021/12/24 01:10:44;;;;;;;64.90;34.93;;;5.20;91.80;;;;;;5041863;28;20249;-68
2021/12/24 01:13:13;;;;;;;58.53;33.00;;;5.20;91.70;;;;;;5043072;28;20214;-68
2021/12/24 01:15:58;;;;;;;54.13;31.57;;;5.20;91.60;;;;;;5019668;28;20647;-68
2021/12/24 01:26:32;;;;;;;53.63;30.83;;;5.20;91.50;;;;;;5025504;28;20216;-67
2021/12/24 01:29:36;;;;;;;48.97;27.80;;;5.20;91.40;;;;;;5027236;28;20228;-67
2021/12/24 01:42:50;;;;;;;51.47;28.67;;;5.20;91.40;;;;;;5023714;28;20728;-68
2021/12/24 01:45:29;;;;;;;46.47;25.83;;;5.20;91.40;;;;;;5028660;28;20222;-68
2021/12/24 01:48:01;;;;;;;48.87;26.67;;;5.20;91.30;;;;;;5021366;28;20335;-68
2021/12/24 01:50:31;;;;;;;48.53;26.47;;;5.20;91.30;;;;;;5030090;28;20228;-68
2021/12/24 01:52:59;;;;;;;47.40;27.10;;;5.20;91.20;;;;;;5030222;28;20621;-68
2021/12/24 01:55:29;;;;;;;51.07;25.77;;;5.20;91.20;;;;;;5029688;28;20226;-68
2021/12/24 01:57:57;;;;;;;39.83;24.23;;;5.20;91.20;;;;;;5018144;28;20221;-68
2021/12/24 02:00:29;;;;;;;47.43;25.40;;;5.20;91.20;;;;;;5017471;28;20262;-68
2021/12/24 02:02:57;;;;;;;52.73;27.70;;;5.10;91.10;;;;;;5022796;28;20315;-68
2021/12/24 02:05:38;;;;;;;45.87;24.27;;;5.10;91.10;;;;;;5019346;28;20269;-67
2021/12/24 02:08:07;;;;;;;46.80;25.60;;;5.10;91.00;;;;;;5017513;28;20303;-67
2021/12/24 02:10:34;;;;;;;44.97;24.80;;;5.10;91.00;;;;;;5020994;28;20265;-68
2021/12/24 02:13:02;;;;;;;44.77;24.73;;;5.10;91.00;;;;;;5028157;28;20219;-68
2021/12/24 02:28:55;;;;;;;43.30;25.77;;;5.00;91.10;;;;;;5019171;28;20209;-68
2021/12/24 02:31:25;;;;;;;42.37;24.07;;;5.00;91.10;;;;;;5029066;28;20681;-68
2021/12/24 02:33:54;;;;;;;42.07;25.03;;;5.00;91.10;;;;;;5040975;28;20319;-68
2021/12/24 02:36:23;;;;;;;44.23;25.47;;;5.00;91.10;;;;;;5038410;28;20214;-68
2021/12/24 02:38:51;;;;;;;40.97;24.73;;;5.00;91.10;;;;;;5020058;28;20214;-68
2021/12/24 02:41:18;;;;;;;44.97;25.33;;;5.00;91.10;;;;;;5021192;28;20292;-68
2021/12/24 02:43:47;;;;;;;47.83;25.17;;;5.00;91.20;;;;;;5026086;28;20218;-68
2021/12/24 02:46:27;;;;;;;46.43;25.60;;;5.00;91.10;;;;;;5031290;28;20235;-68
2021/12/24 02:54:12;;;;;;;42.40;24.23;;;5.10;91.20;;;;;;5024290;28;20218;-68
2021/12/24 02:56:45;;;;;;;46.70;26.93;;;5.00;91.20;;;;;;5020628;28;20301;-68
2021/12/24 02:59:14;;;;;;;46.17;26.37;;;5.00;91.30;;;;;;5025317;28;20218;-68
2021/12/24 03:01:47;;;;;;;42.37;24.57;;;5.00;91.40;;;;;;5028251;28;20216;-68
2021/12/24 03:04:15;;;;;;;42.77;24.67;;;5.00;91.40;;;;;;5023526;28;20247;-68
2021/12/24 03:06:46;;;;;;;43.97;25.43;;;5.00;91.50;;;;;;5023493;28;20619;-68
2021/12/24 03:09:15;;;;;;;40.90;25.47;;;5.00;91.40;;;;;;5017844;28;20579;-68
2021/12/24 03:11:45;;;;;;;47.53;26.20;;;5.00;91.50;;;;;;5021505;28;20256;-68
2021/12/24 03:14:15;;;;;;;43.20;25.73;;;5.00;91.50;;;;;;5027960;28;20291;-68
2021/12/24 03:16:50;;;;;;;42.43;25.63;;;5.00;91.50;;;;;;5028543;28;20208;-68
2021/12/24 03:19:19;;;;;;;46.77;24.77;;;5.10;91.50;;;;;;5035128;28;20209;-68
2021/12/24 03:21:56;;;;;;;40.00;24.40;;;5.10;91.50;;;;;;5035592;28;20220;-68
2021/12/24 03:26:50;;;;;;;46.13;24.83;;;5.10;91.40;;;;;;5021801;28;20303;-67
2021/12/24 03:29:19;;;;;;;41.57;25.53;;;5.10;91.30;;;;;;5038707;28;20296;-68
2021/12/24 03:31:47;;;;;;;45.07;24.97;;;5.10;91.30;;;;;;5008127;28;20229;-68
2021/12/24 03:34:17;;;;;;;42.80;24.13;;;5.10;91.30;;;;;;5040800;28;20220;-68
2021/12/24 03:36:45;;;;;;;43.77;25.30;;;5.00;91.20;;;;;;5037844;28;20221;-68
2021/12/24 03:39:15;;;;;;;40.27;25.53;;;5.00;91.20;;;;;;5036173;28;20627;-68
2021/12/24 03:41:43;;;;;;;43.23;24.17;;;5.00;91.10;;;;;;5034317;28;20305;-68
2021/12/24 03:44:13;;;;;;;46.27;26.03;;;5.00;91.10;;;;;;5031847;28;20324;-68
2021/12/24 03:49:21;;;;;;;50.43;25.07;;;4.90;91.10;;;;;;5033325;28;20369;-68
2021/12/24 03:52:01;;;;;;;46.30;25.93;;;4.90;91.20;;;;;;5041993;28;20237;-68
2021/12/24 03:57:15;;;;;;;42.97;24.63;;;4.80;91.20;;;;;;5028453;28;20350;-68
2021/12/24 04:00:10;;;;;;;47.17;25.30;;;4.80;91.30;;;;;;5022580;28;20227;-68
2021/12/24 04:02:44;;;;;;;42.37;24.70;;;4.80;91.20;;;;;;5021107;28;20312;-68
2021/12/24 04:05:18;;;;;;;36.53;23.10;;;4.80;91.30;;;;;;5027107;28;20326;-68
2021/12/24 04:08:04;;;;;;;41.07;24.70;;;4.80;91.40;;;;;;5025410;28;20255;-68
2021/12/24 04:11:01;;;;;;;41.53;23.43;;;4.80;91.40;;;;;;5002724;28;20712;-68
2021/12/24 04:13:33;;;;;;;42.03;24.80;;;4.80;91.40;;;;;;5029764;28;20213;-68
2021/12/24 04:16:01;;;;;;;43.73;23.33;;;4.80;91.40;;;;;;5025507;28;20210;-68
2021/12/24 04:26:35;;;;;;;40.37;23.70;;;4.80;91.80;;;;;;5016303;28;20223;-68
2021/12/24 04:29:04;;;;;;;41.10;23.70;;;4.80;91.80;;;;;;5006472;28;20226;-68
2021/12/24 04:31:46;;;;;;;41.07;23.27;;;4.90;91.80;;;;;;5002135;28;20240;-68
2021/12/24 04:34:43;;;;;;;40.30;23.47;;;4.90;91.80;;;;;;5004594;28;20247;-68
2021/12/24 05:02:08;;;;;;;38.47;24.33;;;5.00;91.70;;;;;;5006602;28;20225;-68
2021/12/24 05:04:55;;;;;;;41.40;24.20;;;5.00;91.70;;;;;;5018905;28;20240;-68
2021/12/24 05:09:55;;;;;;;46.17;26.37;;;5.00;91.60;;;;;;5042092;28;20567;-68
2021/12/24 05:12:22;;;;;;;50.20;27.53;;;5.00;91.60;;;;;;5018826;28;20261;-68
2021/12/24 05:14:49;;;;;;;47.37;27.17;;;5.10;91.70;;;;;;5025688;28;20213;-68
2021/12/24 05:23:48;;;;;;;45.70;26.13;;;5.10;91.70;;;;;;4937388;28;20227;-68
2021/12/24 05:26:18;;;;;;;45.97;26.17;;;5.10;91.70;;;;;;4984738;28;20233;-68
2021/12/24 05:28:45;;;;;;;43.57;25.57;;;5.10;91.80;;;;;;5024333;28;20230;-68
2021/12/24 05:31:14;;;;;;;49.60;26.47;;;5.10;91.90;;;;;;5021972;28;20270;-68
2021/12/24 05:33:41;;;;;;;44.77;26.20;;;5.00;91.80;;;;;;5015478;28;20216;-68
2021/12/24 05:36:08;;;;;;;42.40;24.77;;;5.10;91.90;;;;;;5022593;28;20210;-68
2021/12/24 05:38:35;;;;;;;42.87;25.53;;;5.10;91.90;;;;;;5025400;28;20309;-68
2021/12/24 05:41:03;;;;;;;44.43;24.57;;;5.10;91.90;;;;;;5007125;28;20414;-68
2021/12/24 05:43:30;;;;;;;43.03;26.33;;;5.10;91.90;;;;;;5040584;28;20217;-68
2021/12/24 05:45:57;;;;;;;43.37;25.37;;;5.10;91.90;;;;;;5019370;28;20611;-68
2021/12/24 05:48:30;;;;;;;44.07;25.17;;;5.10;91.90;;;;;;5038191;28;20704;-68
2021/12/24 05:51:04;;;;;;;41.43;26.43;;;5.20;91.90;;;;;;5038966;28;20227;-68
2021/12/24 05:53:50;;;;;;;43.30;24.97;;;5.20;91.90;;;;;;5020903;28;20207;-68
2021/12/24 05:56:19;;;;;;;40.37;24.50;;;5.20;91.90;;;;;;5027606;28;20228;-68
2021/12/24 05:58:51;;;;;;;41.80;25.90;;;5.20;91.90;;;;;;5038938;28;20216;-68
2021/12/24 06:01:18;;;;;;;40.87;25.27;;;5.20;91.90;;;;;;5013563;28;20226;-68
2021/12/24 06:03:46;;;;;;;41.93;24.90;;;5.20;91.90;;;;;;5021241;28;20221;-68
2021/12/24 06:06:14;;;;;;;43.43;25.40;;;5.20;91.90;;;;;;5000530;28;20221;-68
2021/12/24 06:08:41;;;;;;;45.37;25.73;;;5.20;91.90;;;;;;5021850;28;20215;-68
2021/12/24 06:11:08;;;;;;;41.07;25.50;;;5.20;91.90;;;;;;5022705;28;20223;-68
2021/12/24 06:13:36;;;;;;;47.40;26.13;;;5.20;91.90;;;;;;5006116;28;20210;-68
2021/12/24 06:16:06;;;;;;;45.43;25.93;;;5.20;91.90;;;;;;5007193;28;20247;-68
2021/12/24 06:18:36;;;;;;;41.13;24.87;;;5.20;91.90;;;;;;5015364;28;20214;-68
2021/12/24 06:21:04;;;;;;;40.07;24.50;;;5.20;91.80;;;;;;5025894;28;20350;-68
2021/12/24 06:23:32;;;;;;;44.77;26.83;;;5.20;91.80;;;;;;5005427;28;20265;-68
2021/12/24 06:26:00;;;;;;;43.93;24.13;;;5.20;91.80;;;;;;5005501;28;20643;-68
2021/12/24 06:28:28;;;;;;;40.70;23.83;;;5.20;91.80;;;;;;5017330;28;20224;-68
2021/12/24 06:30:55;;;;;;;41.37;24.83;;;5.20;91.80;;;;;;5009540;28;20637;-68
2021/12/24 06:33:23;;;;;;;41.70;25.23;;;5.20;91.80;;;;;;5024478;28;20235;-68
2021/12/24 06:35:53;;;;;;;42.87;25.50;;;5.20;91.80;;;;;;5021285;28;20213;-68
2021/12/24 06:38:21;;;;;;;40.70;24.97;;;5.20;91.80;;;;;;5003575;28;20708;-68
2021/12/24 06:40:48;;;;;;;42.53;26.47;;;5.20;91.80;;;;;;5008706;28;20604;-68
2021/12/24 06:43:15;;;;;;;37.40;24.20;;;5.20;91.80;;;;;;4990786;28;20220;-68
2021/12/24 06:45:42;;;;;;;36.20;23.47;;;5.20;91.80;;;;;;5025957;28;20210;-68
2021/12/24 06:48:10;;;;;;;38.43;24.00;;;5.20;91.80;;;;;;5018460;28;20227;-68
2021/12/24 06:50:37;;;;;;;44.97;25.53;;;5.20;91.80;;;;;;5022378;28;20243;-67
2021/12/24 06:53:04;;;;;;;41.53;24.23;;;5.20;91.70;;;;;;5022964;28;20441;-67
2021/12/24 06:55:31;;;;;;;40.53;24.80;;;5.20;91.60;;;;;;5017113;28;20218;-67
2021/12/24 06:58:04;;;;;;;38.97;23.80;;;5.30;91.60;;;;;;5003452;28;20219;-67
2021/12/24 07:00:32;;;;;;;38.67;24.73;;;5.20;91.60;;;;;;5011267;28;20217;-67
2021/12/24 07:03:05;;;;;;;36.03;23.70;;;5.20;91.50;;;;;;5023500;28;20218;-67
2021/12/24 07:05:32;;;;;;;40.40;25.50;;;5.20;91.60;;;;;;5020999;28;20549;-68
2021/12/24 07:07:59;;;;;;;39.87;24.67;;;5.30;91.60;;;;;;5004625;28;20330;-68
2021/12/24 07:10:26;;;;;;;38.10;24.00;;;5.30;91.60;;;;;;5020967;28;20226;-68
2021/12/24 07:12:53;;;;;;;39.83;24.33;;;5.30;91.40;;;;;;5026011;28;20566;-68
2021/12/24 07:15:20;;;;;;;38.87;22.50;;;5.30;91.30;;;;;;5019625;28;20213;-68
2021/12/24 07:17:48;;;;;;;35.13;22.83;;;5.30;91.20;;;;;;5024608;28;20592;-68
2021/12/24 07:20:16;;;;;;;36.43;22.63;;;5.30;91.20;;;;;;5004940;28;20232;-68
2021/12/24 07:22:43;;;;;;;34.77;21.93;;;5.40;91.20;;;;;;5010036;28;20657;-68
2021/12/24 07:25:10;;;;;;;33.87;22.17;;;5.30;90.80;;;;;;5027849;28;20286;-68
2021/12/24 07:27:38;;;;;;;36.83;21.50;;;5.30;90.70;;;;;;5024403;28;20213;-68
2021/12/24 07:30:09;;;;;;;30.83;20.20;;;5.40;90.70;;;;;;5027603;28;20217;-68
2021/12/24 07:32:37;;;;;;;33.20;20.73;;;5.30;90.80;;;;;;5025788;28;20317;-68
2021/12/24 07:35:06;;;;;;;31.93;20.87;;;5.30;90.40;;;;;;5025848;28;20215;-68
2021/12/24 07:37:33;;;;;;;33.60;21.90;;;5.30;90.40;;;;;;5022206;28;20225;-68
2021/12/24 07:40:02;;;;;;;33.03;20.13;;;5.30;90.30;;;;;;5033320;28;20228;-68
2021/12/24 07:42:30;;;;;;;32.77;20.57;;;5.30;90.30;;;;;;5025329;28;20220;-68
2021/12/24 07:44:57;;;;;;;32.53;20.77;;;5.40;90.20;;;;;;5028051;28;20223;-68
2021/12/24 07:47:31;;;;;;;36.37;21.70;;;5.40;90.30;;;;;;5030231;28;20561;-68
2021/12/24 07:50:14;;;;;;;32.77;21.33;;;5.50;90.30;;;;;;5023684;28;20216;-68
2021/12/24 07:52:42;;;;;;;26.53;18.17;;;5.50;90.30;;;;;;5031978;28;20237;-68
2021/12/24 07:55:10;;;;;;;31.73;20.17;;;5.50;90.30;;;;;;5008707;28;20271;-68
2021/12/24 07:57:50;;;;;;;31.30;20.97;;;5.60;90.20;;;;;;5023686;28;20200;-68
2021/12/24 08:00:19;;;;;;;39.37;21.83;;;5.60;90.10;;;;;;5011843;28;20218;-68
2021/12/24 08:02:47;;;;;;;34.97;21.97;;;5.60;90.00;;;;;;5029260;28;20219;-68
2021/12/24 08:05:22;;;;;;;35.23;22.43;;;5.60;89.80;;;;;;5027389;28;20246;-68
2021/12/24 08:07:50;;;;;;;30.93;20.73;;;5.70;89.70;;;;;;5014718;28;20407;-68
2021/12/24 08:10:18;;;;;;;33.77;20.97;;;5.70;89.60;;;;;;5025854;28;20294;-68
2021/12/24 08:12:47;;;;;;;34.27;21.23;;;5.80;89.40;;;;;;5022044;28;20226;-68
2021/12/24 08:15:16;;;;;;;31.73;20.33;;;5.80;89.20;;;;;;5028039;28;20211;-68
2021/12/24 08:17:45;;;;;;;32.43;20.77;;;5.90;89.10;;;;;;5016254;28;20214;-68
2021/12/24 08:20:13;;;;;;;28.63;20.10;;;5.90;89.00;;;;;;5027436;28;20211;-68
2021/12/24 08:22:41;;;;;;;32.57;22.03;;;6.00;88.90;;;;;;5030352;28;20257;-68
2021/12/24 08:25:09;;;;;;;30.77;20.77;;;6.00;88.10;;;;;;5027211;28;20407;-68
2021/12/24 08:27:40;;;;;;;32.23;22.23;;;6.10;86.50;;;;;;5025226;28;20228;-68
2021/12/24 08:30:08;;;;;;;37.03;23.43;;;6.10;86.60;;;;;;5028179;28;20273;-68
2021/12/24 08:32:39;;;;;;;36.67;23.73;;;6.20;87.00;;;;;;5019856;28;20240;-68
2021/12/24 08:35:09;;;;;;;35.37;22.50;;;6.20;87.40;;;;;;5027699;28;20305;-68
2021/12/24 08:37:37;;;;;;;41.30;23.77;;;6.30;87.60;;;;;;5004622;28;20219;-68
2021/12/24 08:40:05;;;;;;;37.07;24.37;;;6.40;87.60;;;;;;5024784;28;20211;-68
2021/12/24 08:42:32;;;;;;;43.60;24.00;;;6.40;87.40;;;;;;5020524;28;20220;-68
2021/12/24 08:44:59;;;;;;;37.87;25.07;;;6.50;87.30;;;;;;5002532;28;20317;-68
2021/12/24 08:47:27;;;;;;;35.77;24.37;;;6.50;87.10;;;;;;5025094;28;20610;-68
2021/12/24 08:49:54;;;;;;;37.57;23.67;;;6.60;86.80;;;;;;5021840;28;20296;-68
2021/12/24 08:52:21;;;;;;;42.33;25.80;;;6.60;86.50;;;;;;5019073;28;20270;-68
2021/12/24 08:54:48;;;;;;;41.53;25.17;;;6.60;86.20;;;;;;5007253;28;20215;-68
2021/12/24 08:57:15;;;;;;;37.60;24.43;;;6.60;86.20;;;;;;5014495;28;20219;-68
2021/12/24 08:59:42;;;;;;;37.20;24.83;;;6.60;86.30;;;;;;5025919;28;20631;-68
2021/12/24 09:02:14;;;;;;;38.43;26.03;;;6.60;86.00;;;;;;5026882;28;20215;-68
2021/12/24 09:04:41;;;;;;;37.07;23.77;;;6.60;85.80;;;;;;5020693;28;20693;-68
2021/12/24 09:07:08;;;;;;;37.80;24.70;;;6.70;85.90;;;;;;5043636;28;20211;-68
2021/12/24 09:09:35;;;;;;;36.27;24.50;;;6.70;85.90;;;;;;5025211;28;20689;-67
2021/12/24 09:12:03;;;;;;;40.23;24.77;;;6.70;86.00;;;;;;5020423;28;22173;-67
2021/12/24 09:14:30;;;;;;;38.47;25.97;;;6.70;85.90;;;;;;5020944;28;20219;-67
2021/12/24 09:17:00;;;;;;;41.10;25.87;;;6.80;85.70;;;;;;5028300;28;20218;-67
2021/12/24 09:19:29;;;;;;;38.83;25.97;;;6.80;85.60;;;;;;5020983;28;20230;-67
2021/12/24 09:21:57;;;;;;;41.43;26.40;;;6.90;85.70;;;;;;5035532;28;20927;-67
2021/12/24 09:24:30;;;;;;;44.63;26.97;;;6.90;85.60;;;;;;5027041;28;20290;-67
2021/12/24 09:26:58;;;;;;;45.53;25.70;;;6.90;85.60;;;;;;5024521;28;20212;-67
2021/12/24 09:29:26;;;;;;;40.63;26.03;;;7.00;85.00;;;;;;5026353;28;20249;-68
2021/12/24 09:31:54;;;;;;;41.57;27.53;;;7.00;84.60;;;;;;5040917;28;20556;-67
2021/12/24 09:34:22;;;;;;;39.03;25.60;;;7.00;84.70;;;;;;5037118;28;20644;-67
2021/12/24 09:36:49;;;;;;;40.97;26.53;;;7.00;84.80;;;;;;5026932;28;20206;-68
2021/12/24 09:39:16;;;;;;;39.00;25.93;;;7.10;85.00;;;;;;5025339;28;20651;-68
2021/12/24 09:41:45;;;;;;;39.70;25.97;;;7.10;85.10;;;;;;5024486;28;20257;-68
2021/12/24 09:44:13;;;;;;;40.67;26.50;;;7.20;85.10;;;;;;5041082;28;20643;-68
2021/12/24 09:46:43;;;;;;;42.20;28.03;;;7.20;84.70;;;;;;5031351;28;20226;-68
2021/12/24 09:49:11;;;;;;;44.53;27.17;;;7.20;84.60;;;;;;5023014;28;20233;-68
2021/12/24 09:51:42;;;;;;;44.73;28.37;;;7.10;84.80;;;;;;5025810;28;20246;-68
2021/12/24 09:54:12;;;;;;;42.03;29.30;;;7.10;84.80;;;;;;5019521;28;20331;-68
2021/12/24 09:56:40;;;;;;;44.93;29.23;;;7.10;85.00;;;;;;5019369;28;20409;-68
2021/12/24 09:59:09;;;;;;;40.17;27.83;;;7.20;85.30;;;;;;5025590;28;20237;-68
2021/12/24 10:01:40;;;;;;;43.20;28.50;;;7.20;85.50;;;;;;5024014;28;20293;-68
2021/12/24 10:04:13;;;;;;;44.87;28.60;;;7.20;85.60;;;;;;5024289;28;20243;-68
2021/12/24 10:07:03;;;;;;;44.83;29.80;;;7.20;85.30;;;;;;5021497;28;20700;-68
2021/12/24 10:09:35;;;;;;;42.87;28.50;;;7.30;85.30;;;;;;5009956;28;20244;-68
2021/12/24 10:12:27;;;;;;;43.30;28.30;;;7.30;85.40;;;;;;5021143;28;20230;-68
2021/12/24 10:14:59;;;;;;;41.57;27.10;;;7.30;85.40;;;;;;5015089;28;20859;-68
2021/12/24 10:17:31;;;;;;;42.13;27.93;;;7.40;85.50;;;;;;5023684;28;20209;-68
2021/12/24 10:20:08;;;;;;;46.57;27.60;;;7.50;85.60;;;;;;5024470;28;20647;-68
2021/12/24 10:22:54;;;;;;;42.93;29.07;;;7.60;85.30;;;;;;5014386;28;20222;-68
2021/12/24 10:25:25;;;;;;;45.77;28.67;;;7.70;84.80;;;;;;5026623;28;20226;-68
2021/12/24 10:27:52;;;;;;;42.83;28.93;;;7.70;84.30;;;;;;5024659;28;20219;-68
2021/12/24 10:30:23;;;;;;;47.60;28.70;;;7.70;83.00;;;;;;5024317;28;20222;-68
2021/12/24 10:32:55;;;;;;;46.23;28.17;;;7.70;82.70;;;;;;5007198;28;20524;-68
2021/12/24 10:35:28;;;;;;;49.07;30.67;;;7.70;82.60;;;;;;5024977;28;20264;-68
2021/12/24 10:38:17;;;;;;;44.67;29.30;;;7.70;82.30;;;;;;5003833;28;20229;-68
2021/12/24 10:40:57;;;;;;;46.03;29.20;;;7.70;82.80;;;;;;5022699;28;20232;-68
2021/12/24 10:43:29;;;;;;;44.93;29.47;;;7.70;83.00;;;;;;5019127;28;20698;-68
2021/12/24 10:46:13;;;;;;;44.40;28.50;;;7.70;82.80;;;;;;5004466;28;20215;-68
2021/12/24 10:49:02;;;;;;;53.47;33.43;;;7.70;82.20;;;;;;5012050;28;20646;-68
2021/12/24 10:51:54;;;;;;;47.90;30.97;;;7.70;81.50;;;;;;5026195;28;20219;-68
2021/12/24 10:54:24;;;;;;;46.03;31.07;;;7.70;82.40;;;;;;5010281;28;20330;-68
2021/12/24 10:56:53;;;;;;;51.03;31.33;;;7.70;81.80;;;;;;5024861;28;20294;-68
2021/12/24 10:59:40;;;;;;;44.93;30.40;;;7.70;81.80;;;;;;5013060;28;20211;-67
2021/12/24 11:02:09;;;;;;;53.47;31.13;;;7.70;81.30;;;;;;5031202;28;20211;-67
2021/12/24 11:04:36;;;;;;;48.53;31.43;;;7.60;80.60;;;;;;5031945;28;20664;-67
2021/12/24 11:07:36;;;;;;;46.70;32.27;;;7.60;81.00;;;;;;5033610;28;20231;-67
2021/12/24 11:10:04;;;;;;;48.13;30.93;;;7.60;81.50;;;;;;5032285;28;20242;-68
2021/12/24 11:12:37;;;;;;;54.97;33.80;;;7.60;81.70;;;;;;5012289;28;20229;-68
2021/12/24 11:15:29;;;;;;;53.70;34.77;;;7.60;82.40;;;;;;5030903;28;20218;-68
2021/12/24 11:18:02;;;;;;;54.47;35.73;;;7.60;82.40;;;;;;5003286;28;20297;-68
2021/12/24 11:20:30;;;;;;;54.17;35.63;;;7.60;82.60;;;;;;5031240;28;20210;-68
2021/12/24 11:22:59;;;;;;;55.07;34.00;;;7.50;82.90;;;;;;5018880;28;20219;-68
2021/12/24 11:25:30;;;;;;;54.60;35.37;;;7.50;83.00;;;;;;5032458;28;20225;-68
2021/12/24 11:27:58;;;;;;;51.83;33.60;;;7.50;83.10;;;;;;5034447;28;20227;-68
2021/12/24 11:30:27;;;;;;;50.57;34.67;;;7.50;83.00;;;;;;5010381;28;20558;-68
2021/12/24 11:32:54;;;;;;;56.83;35.70;;;7.40;82.80;;;;;;5029184;28;20295;-68
2021/12/24 11:35:22;;;;;;;54.97;36.47;;;7.40;82.90;;;;;;5027319;28;20213;-68
2021/12/24 11:37:51;;;;;;;56.20;36.10;;;7.40;82.80;;;;;;5022091;28;20223;-67
2021/12/24 11:40:20;;;;;;;58.57;38.53;;;7.30;82.80;;;;;;5026301;28;20214;-67
2021/12/24 11:42:54;;;;;;;60.40;37.83;;;7.30;82.60;;;;;;5026714;28;20276;-68
2021/12/24 11:45:23;;;;;;;63.17;39.80;;;7.30;82.90;;;;;;5016325;28;20209;-68
2021/12/24 11:47:52;;;;;;;65.37;40.77;;;7.30;83.00;;;;;;5017073;28;20233;-68
2021/12/24 11:50:21;;;;;;;67.87;40.23;;;7.30;82.80;;;;;;5027769;28;20210;-68
2021/12/24 11:52:51;;;;;;;64.63;40.33;;;7.30;82.50;;;;;;5026996;28;20243;-68
2021/12/24 11:55:19;;;;;;;69.77;41.23;;;7.30;83.20;;;;;;5030657;28;20203;-68
2021/12/24 11:57:59;;;;;;;60.30;38.20;;;7.20;83.20;;;;;;5023904;28;20229;-68
2021/12/24 12:00:32;;;;;;;65.27;39.77;;;7.20;83.40;;;;;;5027720;28;20220;-68
2021/12/24 12:02:59;;;;;;;61.20;40.43;;;7.20;83.50;;;;;;5030015;28;20214;-68
2021/12/24 12:05:32;;;;;;;62.57;40.30;;;7.20;83.70;;;;;;5017520;28;20250;-68
2021/12/24 12:08:24;;;;;;;67.43;42.40;;;7.20;84.10;;;;;;5022985;28;20209;-68
2021/12/24 12:11:06;;;;;;;71.53;41.47;;;7.30;84.10;;;;;;5030528;28;20223;-68
2021/12/24 12:13:42;;;;;;;68.97;41.03;;;7.30;83.80;;;;;;5040360;28;20579;-68
2021/12/24 12:16:12;;;;;;;67.23;42.23;;;7.30;84.10;;;;;;5024920;28;20209;-68
2021/12/24 12:18:51;;;;;;;61.33;38.97;;;7.30;84.10;;;;;;5018609;28;20214;-68
2021/12/24 12:21:34;;;;;;;64.13;40.67;;;7.30;84.60;;;;;;5025454;28;20213;-68
2021/12/24 12:24:57;;;;;;;70.97;44.70;;;7.30;84.60;;;;;;5026931;28;20219;-68
2021/12/24 12:26:53;;;;;;;68.53;44.63;;;7.30;84.90;;;;;;5028836;28;20218;-68
2021/12/24 12:29:42;;;;;;;77.00;44.17;;;7.30;85.10;;;;;;5019585;28;20521;-68
2021/12/24 12:32:15;;;;;;;79.33;43.53;;;7.30;85.20;;;;;;5022235;28;20456;-68
2021/12/24 12:34:48;;;;;;;64.53;39.83;;;7.40;84.80;;;;;;5036406;28;20229;-68
2021/12/24 12:37:51;;;;;;;67.57;42.60;;;7.40;84.60;;;;;;5017577;28;20211;-68
2021/12/24 12:40:18;;;;;;;67.33;42.57;;;7.40;84.10;;;;;;5001129;28;20207;-68
2021/12/24 12:42:57;;;;;;;74.13;41.87;;;7.40;84.00;;;;;;5026969;28;20220;-68
2021/12/24 12:45:33;;;;;;;76.33;43.63;;;7.40;84.30;;;;;;5032034;28;20292;-68
2021/12/24 12:48:09;;;;;;;70.80;42.60;;;7.40;84.60;;;;;;5046078;28;20215;-68
2021/12/24 12:50:38;;;;;;;77.43;43.43;;;7.40;84.80;;;;;;5020685;28;20207;-68
2021/12/24 12:53:26;;;;;;;70.07;42.97;;;7.50;84.80;;;;;;5023410;28;20748;-68
2021/12/24 12:56:14;;;;;;;67.03;41.37;;;7.50;85.10;;;;;;5030518;28;20242;-68
2021/12/24 12:58:47;;;;;;;72.33;42.43;;;7.50;85.30;;;;;;5025818;28;20239;-68
2021/12/24 13:01:20;;;;;;;62.90;40.17;;;7.60;85.30;;;;;;5034251;28;20215;-68
2021/12/24 13:03:56;;;;;;;68.40;40.30;;;7.70;85.30;;;;;;5026099;28;20224;-68
2021/12/24 13:06:46;;;;;;;64.73;41.67;;;7.70;85.30;;;;;;5038055;28;20249;-68
2021/12/24 13:09:20;;;;;;;62.87;40.47;;;7.80;85.20;;;;;;5031112;28;20218;-68
2021/12/24 13:11:51;;;;;;;65.63;37.73;;;7.80;85.00;;;;;;5021882;28;20215;-68
2021/12/24 13:14:19;;;;;;;60.73;37.17;;;7.80;84.40;;;;;;5026307;28;20246;-68
2021/12/24 13:17:04;;;;;;;59.53;38.40;;;7.80;84.20;;;;;;5022911;28;20226;-68
2021/12/24 13:22:31;;;;;;;60.90;40.27;;;7.80;83.50;;;;;;5021557;28;20207;-68
2021/12/24 13:25:00;;;;;;;62.00;39.37;;;7.70;83.60;;;;;;5024885;28;20537;-68
2021/12/24 13:27:30;;;;;;;62.33;38.37;;;7.70;84.20;;;;;;5020139;28;20222;-69
2021/12/24 13:30:13;;;;;;;61.50;39.73;;;7.70;84.20;;;;;;5019642;28;20222;-69
2021/12/24 13:32:42;;;;;;;65.87;39.60;;;7.70;84.50;;;;;;5021700;28;20225;-69
2021/12/24 13:35:11;;;;;;;60.50;39.03;;;7.70;84.60;;;;;;5037856;28;20705;-69
2021/12/24 13:37:45;;;;;;;65.47;37.87;;;7.60;84.60;;;;;;5023380;28;20261;-69
2021/12/24 13:40:15;;;;;;;61.23;40.93;;;7.60;84.70;;;;;;5037899;28;20296;-69
2021/12/24 13:42:44;;;;;;;70.10;41.57;;;7.60;84.90;;;;;;5035313;28;20297;-69
2021/12/24 13:45:11;;;;;;;62.27;40.30;;;7.60;84.80;;;;;;5039807;28;20216;-69
2021/12/24 13:47:55;;;;;;;64.30;41.63;;;7.60;84.90;;;;;;5040239;28;20223;-69
2021/12/24 13:54:31;;;;;;;65.47;39.73;;;7.60;85.00;;;;;;5024232;28;20209;-69
2021/12/24 13:56:02;;;;;;;58.53;38.20;;;7.60;84.70;;;;;;5039152;28;20206;-69
2021/12/24 13:58:30;;;;;;;65.97;38.90;;;7.60;84.80;;;;;;5033083;28;20714;-69
2021/12/24 14:01:01;;;;;;;65.43;40.13;;;7.50;85.00;;;;;;5025000;28;20211;-69
2021/12/24 14:03:31;;;;;;;63.13;40.13;;;7.50;85.30;;;;;;5017199;28;20223;-69
2021/12/24 14:06:04;;;;;;;61.27;39.47;;;7.50;85.50;;;;;;5027002;28;20337;-69
2021/12/24 14:08:37;;;;;;;59.80;39.70;;;7.50;85.70;;;;;;5027166;28;20222;-69
2021/12/24 14:11:19;;;;;;;65.53;41.23;;;7.60;85.70;;;;;;5000670;28;20285;-69
2021/12/24 14:13:56;;;;;;;65.30;40.33;;;7.50;85.70;;;;;;5005406;28;20750;-69
2021/12/24 14:19:34;;;;;;;66.43;40.20;;;7.50;85.60;;;;;;5024134;28;20203;-69
2021/12/24 14:22:10;;;;;;;66.37;40.70;;;7.50;85.60;;;;;;5012665;28;20199;-69
2021/12/24 14:25:01;;;;;;;62.50;38.73;;;7.50;85.70;;;;;;5001665;28;20245;-69
2021/12/24 14:27:31;;;;;;;68.90;40.20;;;7.50;85.70;;;;;;5013374;28;20218;-69
2021/12/24 14:30:09;;;;;;;67.47;40.87;;;7.50;85.90;;;;;;5022862;28;20292;-69
2021/12/24 14:32:42;;;;;;;63.07;40.20;;;7.40;86.10;;;;;;5023547;28;20678;-69
2021/12/24 14:35:16;;;;;;;62.87;38.83;;;7.40;86.40;;;;;;5022955;28;20242;-69
2021/12/24 14:37:53;;;;;;;64.53;40.20;;;7.40;86.60;;;;;;5023127;28;20209;-70
2021/12/24 14:40:20;;;;;;;62.40;39.03;;;7.40;86.90;;;;;;5023339;28;20206;-69
2021/12/24 14:42:50;;;;;;;65.53;40.57;;;7.40;87.20;;;;;;4997909;28;20214;-69
2021/12/24 14:45:28;;;;;;;65.33;41.43;;;7.40;87.30;;;;;;5016030;28;20253;-69
2021/12/24 14:48:08;;;;;;;63.27;39.83;;;7.40;87.60;;;;;;5020013;28;20227;-69
2021/12/24 14:51:03;;;;;;;63.47;39.63;;;7.40;87.90;;;;;;5002933;28;20219;-69
2021/12/24 14:53:41;;;;;;;75.27;41.13;;;7.30;88.60;;;;;;5012523;28;20230;-69